createdAt,value
2023-02-09T00:01:31.716Z,7.97
2023-02-09T00:04:00.052Z,8.63
2023-02-09T00:06:30.055Z,7.27
2023-02-09T00:09:01.273Z,7.70
2023-02-09T00:11:49.842Z,6.29
2023-02-09T00:14:21.910Z,7.55
2023-02-09T00:16:50.816Z,7.86
2023-02-09T00:19:21.637Z,8.04
2023-02-09T00:21:49.500Z,7.00
2023-02-09T00:24:16.954Z,6.62
2023-02-09T00:26:47.244Z,7.78
2023-02-09T00:29:14.898Z,7.60
2023-02-09T00:31:42.560Z,7.12
2023-02-09T00:34:10.713Z,6.02
2023-02-09T00:36:37.893Z,8.13
2023-02-09T00:39:05.109Z,6.77
2023-02-09T00:41:51.525Z,6.47
2023-02-09T00:44:18.671Z,6.98
2023-02-09T00:46:45.818Z,7.34
2023-02-09T00:49:13.112Z,5.85
2023-02-09T00:51:42.626Z,7.02
2023-02-09T00:54:10.401Z,6.37
2023-02-09T00:56:37.472Z,7.94
2023-02-09T00:59:04.846Z,8.13
2023-02-09T01:01:32.130Z,6.51
2023-02-09T01:03:59.333Z,7.62
2023-02-09T01:06:26.568Z,7.99
2023-02-09T01:08:54.861Z,8.71
2023-02-09T01:11:27.070Z,7.64
2023-02-09T01:13:58.063Z,7.15
2023-02-09T01:16:28.761Z,7.02
2023-02-09T01:18:56.586Z,7.98
2023-02-09T01:21:26.132Z,7.78
2023-02-09T01:23:53.519Z,7.96
2023-02-09T01:26:20.795Z,8.79
2023-02-09T01:28:55.538Z,8.90
2023-02-09T01:31:26.663Z,8.30
2023-02-09T01:33:56.293Z,9.41
2023-02-09T01:36:26.347Z,9.69
2023-02-09T01:38:58.851Z,10.08
2023-02-09T01:41:26.599Z,10.56
2023-02-09T01:44:11.755Z,9.98
2023-02-09T01:46:39.947Z,7.52
2023-02-09T01:49:09.919Z,9.62
2023-02-09T01:52:08.953Z,8.88
2023-02-09T01:54:46.373Z,9.60
2023-02-09T01:57:25.455Z,9.21
2023-02-09T02:00:03.736Z,9.49
2023-02-09T02:02:31.125Z,10.23
2023-02-09T02:04:58.922Z,10.25
2023-02-09T02:07:47.383Z,10.76
2023-02-09T02:10:15.001Z,10.63
2023-02-09T02:12:42.849Z,10.44
2023-02-09T02:15:10.255Z,10.34
2023-02-09T02:18:43.646Z,10.43
2023-02-09T02:21:31.762Z,10.36
2023-02-09T02:24:24.893Z,9.21
2023-02-09T02:27:32.483Z,10.62
2023-02-09T02:30:19.944Z,9.72
2023-02-09T02:33:12.071Z,8.48
2023-02-09T02:36:11.238Z,8.21
2023-02-09T02:39:11.188Z,8.53
2023-02-09T02:42:16.511Z,9.40
2023-02-09T02:44:56.532Z,10.27
2023-02-09T02:47:27.239Z,9.97
2023-02-09T02:50:02.092Z,10.18
2023-02-09T02:52:29.579Z,9.99
2023-02-09T02:55:15.266Z,9.94
2023-02-09T02:57:50.972Z,8.64
2023-02-09T03:00:30.699Z,9.67
2023-02-09T03:03:05.810Z,9.90
2023-02-09T03:05:39.110Z,9.92
2023-02-09T03:08:06.650Z,9.48
2023-02-09T03:10:38.375Z,9.06
2023-02-09T03:13:29.274Z,9.50
2023-02-09T03:16:13.250Z,9.56
2023-02-09T03:19:04.805Z,7.40
2023-02-09T03:21:45.407Z,9.30
2023-02-09T03:24:41.748Z,8.96
2023-02-09T03:27:35.460Z,9.56
2023-02-09T03:30:04.922Z,7.87
2023-02-09T03:32:36.559Z,7.19
2023-02-09T03:35:05.297Z,7.58
2023-02-09T03:37:32.470Z,9.17
2023-02-09T03:39:59.689Z,9.72
2023-02-09T03:42:26.994Z,9.88
2023-02-09T03:44:54.211Z,10.09
2023-02-09T03:47:21.375Z,10.06
2023-02-09T03:49:48.537Z,10.30
2023-02-09T03:52:17.540Z,9.82
2023-02-09T03:54:45.073Z,8.78
2023-02-09T03:57:12.324Z,9.36
2023-02-09T03:59:39.939Z,9.31
2023-02-09T04:02:10.746Z,8.69
2023-02-09T04:04:38.560Z,9.32
2023-02-09T04:07:08.130Z,8.15
2023-02-09T04:09:37.622Z,8.75
2023-02-09T04:12:05.393Z,8.71
2023-02-09T04:14:35.069Z,8.53
2023-02-09T04:17:05.370Z,8.05
2023-02-09T04:19:32.572Z,7.28
2023-02-09T04:22:01.267Z,7.83
2023-02-09T04:24:31.946Z,8.13
2023-02-09T04:26:59.235Z,7.90
2023-02-09T04:29:26.808Z,8.42
2023-02-09T04:31:54.119Z,8.34
2023-02-09T04:34:23.025Z,8.01
2023-02-09T04:36:51.229Z,7.81
2023-02-09T04:39:18.639Z,7.98
2023-02-09T04:41:45.914Z,8.37
2023-02-09T04:44:13.368Z,8.64
2023-02-09T04:46:40.630Z,8.70
2023-02-09T04:49:07.804Z,8.82
2023-02-09T04:51:34.982Z,8.92
2023-02-09T04:54:02.267Z,9.23
2023-02-09T04:56:31.459Z,9.04
2023-02-09T04:59:19.822Z,8.34
2023-02-09T05:01:47.122Z,9.00
2023-02-09T05:04:14.361Z,9.02
2023-02-09T05:06:44.044Z,7.77
2023-02-09T05:09:11.320Z,8.35
2023-02-09T05:11:38.444Z,7.77
2023-02-09T05:14:05.690Z,8.02
2023-02-09T05:16:32.906Z,8.30
2023-02-09T05:19:00.093Z,8.34
2023-02-09T05:21:27.309Z,8.16
2023-02-09T05:23:54.446Z,7.95
2023-02-09T05:26:21.595Z,8.04
2023-02-09T05:28:48.863Z,8.27
2023-02-09T05:31:19.104Z,7.86
2023-02-09T05:33:46.462Z,7.32
2023-02-09T05:36:14.869Z,7.53
2023-02-09T05:38:42.087Z,8.43
2023-02-09T05:41:32.511Z,8.44
2023-02-09T05:44:02.103Z,8.62
2023-02-09T05:46:29.294Z,8.66
2023-02-09T05:48:56.520Z,8.15
2023-02-09T05:51:23.732Z,7.22
2023-02-09T05:53:54.024Z,7.58
2023-02-09T05:56:22.706Z,7.96
2023-02-09T05:58:49.848Z,7.96
2023-02-09T06:01:17.131Z,8.15
2023-02-09T06:03:44.694Z,8.09
2023-02-09T06:06:11.931Z,8.53
2023-02-09T06:08:39.415Z,8.08
2023-02-09T06:11:06.718Z,8.00
2023-02-09T06:13:33.960Z,8.48
2023-02-09T06:16:01.339Z,7.98
2023-02-09T06:18:28.569Z,8.16
2023-02-09T06:20:55.790Z,7.93
2023-02-09T06:23:23.046Z,8.22
2023-02-09T06:25:53.242Z,8.48
2023-02-09T06:28:21.155Z,8.52
2023-02-09T06:30:53.468Z,8.71
2023-02-09T06:33:22.925Z,8.82
2023-02-09T06:35:52.280Z,9.18
2023-02-09T06:38:19.982Z,9.09
2023-02-09T06:40:48.059Z,9.19
2023-02-09T06:43:15.952Z,8.14
2023-02-09T06:45:46.071Z,7.20
2023-02-09T06:48:13.664Z,8.12
2023-02-09T06:50:41.112Z,8.45
2023-02-09T06:53:08.320Z,9.90
2023-02-09T06:55:36.094Z,8.52
2023-02-09T06:58:04.085Z,10.66
2023-02-09T07:00:34.310Z,10.68
2023-02-09T07:03:01.730Z,9.49
2023-02-09T07:05:29.237Z,11.51
2023-02-09T07:07:56.943Z,10.31
2023-02-09T07:10:24.313Z,10.73
2023-02-09T07:12:51.725Z,10.89
2023-02-09T07:15:19.193Z,10.72
2023-02-09T07:17:48.356Z,11.36
2023-02-09T07:20:15.593Z,9.46
2023-02-09T07:22:42.867Z,11.35
2023-02-09T07:25:14.988Z,13.05
2023-02-09T07:27:45.231Z,10.09
2023-02-09T07:30:13.365Z,11.75
2023-02-09T07:32:42.281Z,12.75
2023-02-09T07:35:09.391Z,12.20
2023-02-09T07:37:38.799Z,12.67
2023-02-09T07:40:07.534Z,13.54
2023-02-09T07:42:34.751Z,11.19
2023-02-09T07:45:01.896Z,12.59
2023-02-09T07:47:29.163Z,13.62
2023-02-09T07:49:56.343Z,14.61
2023-02-09T07:52:23.470Z,15.36
2023-02-09T07:54:51.920Z,14.86
2023-02-09T07:57:19.172Z,16.54
2023-02-09T07:59:46.478Z,14.02
2023-02-09T08:02:26.677Z,14.20
2023-02-09T08:04:57.611Z,13.66
2023-02-09T08:07:26.050Z,14.60
2023-02-09T08:09:53.257Z,13.44
2023-02-09T08:12:44.794Z,14.93
2023-02-09T08:15:15.408Z,16.18
2023-02-09T08:17:45.175Z,15.31
2023-02-09T08:20:22.123Z,13.95
2023-02-09T08:22:54.761Z,14.33
2023-02-09T08:25:25.580Z,17.03
2023-02-09T08:27:53.829Z,16.12
2023-02-09T08:30:21.213Z,19.13
2023-02-09T08:32:50.761Z,16.74
2023-02-09T08:35:18.009Z,17.43
2023-02-09T08:37:45.334Z,15.51
2023-02-09T08:40:14.950Z,13.62
2023-02-09T08:42:42.434Z,17.51
2023-02-09T08:45:10.079Z,19.12
2023-02-09T08:47:38.128Z,18.34
2023-02-09T08:50:08.586Z,18.31
2023-02-09T08:52:38.323Z,15.51
2023-02-09T08:55:05.776Z,15.25
2023-02-09T08:57:43.476Z,18.42
2023-02-09T09:00:12.755Z,18.08
2023-02-09T09:02:40.331Z,18.19
2023-02-09T09:05:07.896Z,19.70
2023-02-09T09:07:37.554Z,18.58
2023-02-09T09:10:08.858Z,19.16
2023-02-09T09:12:36.284Z,20.09
2023-02-09T09:15:04.755Z,19.55
2023-02-09T09:17:32.090Z,18.85
2023-02-09T09:19:59.500Z,20.55
2023-02-09T09:22:29.102Z,19.22
2023-02-09T09:24:56.364Z,19.40
2023-02-09T09:27:25.995Z,19.40
2023-02-09T09:29:57.595Z,20.59
2023-02-09T09:32:25.421Z,16.99
2023-02-09T09:34:58.952Z,19.29
2023-02-09T09:37:27.032Z,20.81
2023-02-09T09:39:54.216Z,21.40
2023-02-09T09:42:33.739Z,20.76
2023-02-09T09:45:01.521Z,24.46
2023-02-09T09:47:42.295Z,22.47
2023-02-09T09:50:33.016Z,18.16
2023-02-09T09:53:33.531Z,21.01
2023-02-09T09:56:09.335Z,19.42
2023-02-09T09:58:42.750Z,18.28
2023-02-09T10:01:15.660Z,19.06
2023-02-09T10:03:43.702Z,20.78
2023-02-09T10:06:22.869Z,18.55
2023-02-09T10:09:12.349Z,17.84
2023-02-09T10:11:48.828Z,18.78
2023-02-09T10:14:16.131Z,21.05
2023-02-09T10:16:45.440Z,21.44
2023-02-09T10:19:29.272Z,21.02
2023-02-09T10:21:58.821Z,19.43
2023-02-09T10:24:33.600Z,20.96
2023-02-09T10:27:31.219Z,20.06
2023-02-09T10:30:28.667Z,22.98
2023-02-09T10:33:00.501Z,23.92
2023-02-09T10:35:41.997Z,25.86
2023-02-09T10:38:19.310Z,26.50
2023-02-09T10:40:50.152Z,24.83
2023-02-09T10:43:24.309Z,19.18
2023-02-09T10:46:01.053Z,16.83
2023-02-09T10:48:39.454Z,14.86
2023-02-09T10:51:15.500Z,16.21
2023-02-09T10:54:04.899Z,17.14
2023-02-09T10:56:49.707Z,20.32
2023-02-09T10:59:23.337Z,20.13
2023-02-09T11:02:01.164Z,21.31
2023-02-09T11:04:40.141Z,21.24
2023-02-09T11:07:14.651Z,18.88
2023-02-09T11:09:47.743Z,19.73
2023-02-09T11:12:15.085Z,18.72
2023-02-09T11:14:46.100Z,19.80
2023-02-09T11:17:22.790Z,15.60
2023-02-09T11:20:04.994Z,14.16
2023-02-09T11:22:50.123Z,14.42
2023-02-09T11:25:45.496Z,15.83
2023-02-09T11:28:33.786Z,16.19
2023-02-09T11:31:00.859Z,19.19
2023-02-09T11:34:08.324Z,17.70
2023-02-09T11:37:04.517Z,17.53
2023-02-09T11:40:02.777Z,14.63
2023-02-09T11:42:45.835Z,15.90
2023-02-09T11:45:35.240Z,15.19
2023-02-09T11:48:23.142Z,15.74
2023-02-09T11:50:59.299Z,13.42
2023-02-09T11:54:16.466Z,15.55
2023-02-09T11:56:50.402Z,17.26
2023-02-09T11:59:36.784Z,15.30
2023-02-09T12:02:23.855Z,16.94
2023-02-09T12:04:55.022Z,15.66
2023-02-09T12:07:54.117Z,16.53
2023-02-09T12:10:29.949Z,16.13
2023-02-09T12:13:39.348Z,18.27
2023-02-09T12:16:21.347Z,18.35
2023-02-09T12:18:48.784Z,18.53
2023-02-09T12:21:33.235Z,16.47
2023-02-09T12:24:01.981Z,17.08
2023-02-09T12:26:43.674Z,18.33
2023-02-09T12:29:41.137Z,16.92
2023-02-09T12:32:08.390Z,15.26
2023-02-09T12:34:39.203Z,16.57
2023-02-09T12:37:16.934Z,14.08
2023-02-09T12:40:07.907Z,14.08
2023-02-09T12:42:55.781Z,17.08
2023-02-09T12:45:43.174Z,17.17
2023-02-09T12:48:10.347Z,19.26
2023-02-09T12:50:43.524Z,16.25
2023-02-09T12:53:26.418Z,17.47
2023-02-09T12:56:11.321Z,14.45
2023-02-09T12:58:44.350Z,15.85
2023-02-09T13:01:14.098Z,14.53
2023-02-09T13:03:49.254Z,17.57
2023-02-09T13:06:49.110Z,16.72
2023-02-09T13:09:39.140Z,17.73
2023-02-09T13:12:15.177Z,17.88
2023-02-09T13:14:50.477Z,17.63
2023-02-09T13:17:36.871Z,15.82
2023-02-09T13:20:30.341Z,17.66
2023-02-09T13:23:16.527Z,16.95
2023-02-09T13:25:44.373Z,14.83
2023-02-09T13:28:26.649Z,13.82
2023-02-09T13:30:54.366Z,11.48
2023-02-09T13:34:03.055Z,11.25
2023-02-09T13:36:32.838Z,12.23
2023-02-09T13:39:00.151Z,11.60
2023-02-09T13:41:40.662Z,11.12
2023-02-09T13:44:30.281Z,13.75
2023-02-09T13:47:00.971Z,15.73
2023-02-09T13:49:30.525Z,15.97
2023-02-09T13:52:17.177Z,12.98
2023-02-09T13:54:44.565Z,13.25
2023-02-09T13:57:32.360Z,13.78
2023-02-09T14:00:27.237Z,14.22
2023-02-09T14:03:03.710Z,15.10
2023-02-09T14:05:41.561Z,15.52
2023-02-09T14:08:11.382Z,15.05
2023-02-09T14:10:44.923Z,15.73
2023-02-09T14:13:26.783Z,15.51
2023-02-09T14:16:09.191Z,12.67
2023-02-09T14:18:58.849Z,10.78
2023-02-09T14:21:40.495Z,13.20
2023-02-09T14:24:27.935Z,12.53
2023-02-09T14:27:15.827Z,12.92
2023-02-09T14:29:47.771Z,12.74
2023-02-09T14:32:35.401Z,12.86
2023-02-09T14:35:25.386Z,14.58
2023-02-09T14:37:56.082Z,14.96
2023-02-09T14:40:27.977Z,13.22
2023-02-09T14:43:11.083Z,14.28
2023-02-09T14:45:45.578Z,13.88
2023-02-09T14:48:27.586Z,14.49
2023-02-09T14:51:03.257Z,14.10
2023-02-09T14:53:33.105Z,14.52
2023-02-09T14:56:02.706Z,14.82
2023-02-09T14:58:32.410Z,14.39
2023-02-09T15:01:02.872Z,13.37
2023-02-09T15:03:30.219Z,14.32
2023-02-09T15:06:02.941Z,12.48
2023-02-09T15:08:37.027Z,13.78
2023-02-09T15:11:26.428Z,13.22
2023-02-09T15:14:03.984Z,13.37
2023-02-09T15:16:43.181Z,14.15
2023-02-09T15:19:19.536Z,13.23
2023-02-09T15:21:58.730Z,14.14
2023-02-09T15:24:32.718Z,13.21
2023-02-09T15:26:59.833Z,13.45
2023-02-09T15:29:27.304Z,13.66
2023-02-09T15:31:55.347Z,14.29
2023-02-09T15:34:22.497Z,14.21
2023-02-09T15:36:49.727Z,14.98
2023-02-09T15:39:25.238Z,12.51
2023-02-09T15:42:11.193Z,12.96
2023-02-09T15:44:57.115Z,13.54
2023-02-09T15:47:43.073Z,13.50
2023-02-09T15:50:10.357Z,13.64
2023-02-09T15:52:37.773Z,14.20
2023-02-09T15:55:05.702Z,14.71
2023-02-09T15:57:32.980Z,15.59
2023-02-09T16:00:02.770Z,15.52
2023-02-09T16:02:29.959Z,14.96
2023-02-09T16:04:57.054Z,15.91
2023-02-09T16:07:27.299Z,15.69
2023-02-09T16:09:54.479Z,15.19
2023-02-09T16:12:21.539Z,15.93
2023-02-09T16:14:48.613Z,16.34
2023-02-09T16:17:15.820Z,14.95
2023-02-09T16:19:43.902Z,15.60
2023-02-09T16:22:13.704Z,15.54
2023-02-09T16:24:45.834Z,14.75
2023-02-09T16:27:28.371Z,13.59
2023-02-09T16:29:57.885Z,13.91
2023-02-09T16:32:28.838Z,13.77
2023-02-09T16:35:04.534Z,13.82
2023-02-09T16:37:38.436Z,12.40
2023-02-09T16:40:33.346Z,12.14
2023-02-09T16:43:01.903Z,12.84
2023-02-09T16:45:37.217Z,14.49
2023-02-09T16:48:04.919Z,14.02
2023-02-09T16:50:39.997Z,13.01
2023-02-09T16:53:37.124Z,13.35
2023-02-09T16:56:10.337Z,14.05
2023-02-09T16:58:40.121Z,13.84
2023-02-09T17:01:20.891Z,13.27
2023-02-09T17:03:52.316Z,12.80
2023-02-09T17:06:23.580Z,13.20
2023-02-09T17:08:51.320Z,13.38
2023-02-09T17:11:23.654Z,13.17
2023-02-09T17:13:51.273Z,12.84
2023-02-09T17:16:27.482Z,13.17
2023-02-09T17:18:58.934Z,13.36
2023-02-09T17:21:35.310Z,13.10
2023-02-09T17:24:06.804Z,14.13
2023-02-09T17:26:37.750Z,14.32
2023-02-09T17:29:04.877Z,14.04
2023-02-09T17:31:47.025Z,14.29
2023-02-09T17:34:18.274Z,14.90
2023-02-09T17:36:45.387Z,12.66
2023-02-09T17:39:14.054Z,14.24
2023-02-09T17:41:46.601Z,14.73
2023-02-09T17:44:43.640Z,14.88
2023-02-09T17:47:20.695Z,13.85
2023-02-09T17:49:47.929Z,13.88
2023-02-09T17:52:19.960Z,14.35
2023-02-09T17:54:47.821Z,12.90
2023-02-09T17:57:17.155Z,12.05
2023-02-09T17:59:44.301Z,13.82
2023-02-09T18:02:17.949Z,12.89
2023-02-09T18:04:47.990Z,12.30
2023-02-09T18:07:20.519Z,12.42
2023-02-09T18:09:50.484Z,11.98
2023-02-09T18:12:26.559Z,11.17
2023-02-09T18:14:54.202Z,11.63
2023-02-09T18:17:21.250Z,10.92
2023-02-09T18:19:48.364Z,12.00
2023-02-09T18:22:20.174Z,12.21
2023-02-09T18:24:50.135Z,11.89
2023-02-09T18:27:23.124Z,10.72
2023-02-09T18:29:50.650Z,11.28
2023-02-09T18:32:21.143Z,10.86
2023-02-09T18:34:50.988Z,10.94
2023-02-09T18:37:18.179Z,11.23
2023-02-09T18:39:46.917Z,12.45
2023-02-09T18:42:19.367Z,12.57
2023-02-09T18:44:48.912Z,10.75
2023-02-09T18:47:18.524Z,11.00
2023-02-09T18:49:45.689Z,12.19
2023-02-09T18:52:17.162Z,11.83
2023-02-09T18:54:44.578Z,12.44
2023-02-09T18:57:13.272Z,11.52
2023-02-09T18:59:40.881Z,11.21
2023-02-09T19:02:11.232Z,12.26
2023-02-09T19:04:38.631Z,13.37
2023-02-09T19:07:09.454Z,13.17
2023-02-09T19:09:39.212Z,12.33
2023-02-09T19:12:07.163Z,11.91
2023-02-09T19:14:40.548Z,11.08
2023-02-09T19:17:13.461Z,12.66
2023-02-09T19:19:40.879Z,12.60
2023-02-09T19:22:13.588Z,13.09
2023-02-09T19:24:43.206Z,12.51
2023-02-09T19:27:16.978Z,12.73
2023-02-09T19:29:45.512Z,13.13
2023-02-09T19:32:14.962Z,12.99
2023-02-09T19:34:43.245Z,12.65
2023-02-09T19:37:12.395Z,13.36
2023-02-09T19:39:41.596Z,13.46
2023-02-09T19:42:08.983Z,13.91
2023-02-09T19:44:36.478Z,12.81
2023-02-09T19:47:03.601Z,11.91
2023-02-09T19:49:32.829Z,13.13
2023-02-09T19:52:01.365Z,12.27
2023-02-09T19:54:28.473Z,12.22
2023-02-09T19:56:55.610Z,12.42
2023-02-09T19:59:22.790Z,12.54
2023-02-09T20:01:50.248Z,13.05
2023-02-09T20:04:17.412Z,11.47
2023-02-09T20:06:46.933Z,13.07
2023-02-09T20:09:14.119Z,12.53
2023-02-09T20:11:43.730Z,12.46
2023-02-09T20:14:10.935Z,13.18
2023-02-09T20:16:38.567Z,12.38
2023-02-09T20:19:08.128Z,11.81
2023-02-09T20:21:37.547Z,12.70
2023-02-09T20:24:09.567Z,12.34
2023-02-09T20:26:36.860Z,11.32
2023-02-09T20:29:08.250Z,12.25
2023-02-09T20:31:38.187Z,12.03
2023-02-09T20:34:07.799Z,12.08
2023-02-09T20:36:38.525Z,11.97
2023-02-09T20:39:10.125Z,11.50
2023-02-09T20:41:59.694Z,12.43
2023-02-09T20:44:45.671Z,12.69
2023-02-09T20:47:13.020Z,12.55
2023-02-09T20:49:40.698Z,13.31
2023-02-09T20:52:08.973Z,12.97
2023-02-09T20:54:45.200Z,11.80
2023-02-09T20:57:12.483Z,13.12
2023-02-09T20:59:40.040Z,13.29
2023-02-09T21:02:07.331Z,13.17
2023-02-09T21:04:36.664Z,13.11
2023-02-09T21:07:04.550Z,12.69
2023-02-09T21:09:31.697Z,12.03
2023-02-09T21:11:58.868Z,11.37
2023-02-09T21:14:32.246Z,10.62
2023-02-09T21:17:06.395Z,12.49
2023-02-09T21:19:40.030Z,13.43
2023-02-09T21:22:07.808Z,12.31
2023-02-09T21:24:37.046Z,13.18
2023-02-09T21:27:06.854Z,13.72
2023-02-09T21:29:37.875Z,13.72
2023-02-09T21:32:07.499Z,14.16
2023-02-09T21:34:37.722Z,13.39
2023-02-09T21:37:10.251Z,12.77
2023-02-09T21:39:43.318Z,12.75
2023-02-09T21:42:28.853Z,12.65
2023-02-09T21:44:57.175Z,13.18
2023-02-09T21:47:34.894Z,13.52
2023-02-09T21:50:02.331Z,12.86
2023-02-09T21:52:30.130Z,12.63
2023-02-09T21:54:57.755Z,12.76
2023-02-09T21:57:26.143Z,11.32
2023-02-09T21:59:56.194Z,12.44
2023-02-09T22:02:27.498Z,12.31
2023-02-09T22:04:54.801Z,11.48
2023-02-09T22:07:22.125Z,12.96
2023-02-09T22:09:51.516Z,12.15
2023-02-09T22:12:18.777Z,12.72
2023-02-09T22:14:46.091Z,12.03
2023-02-09T22:17:15.673Z,11.67
2023-02-09T22:19:42.835Z,11.91
2023-02-09T22:22:10.737Z,11.45
2023-02-09T22:24:38.208Z,11.21
2023-02-09T22:27:05.389Z,12.10
2023-02-09T22:29:34.966Z,12.77
2023-02-09T22:32:02.496Z,12.81
2023-02-09T22:34:29.679Z,13.05
2023-02-09T22:36:56.771Z,12.26
2023-02-09T22:39:23.969Z,12.59
2023-02-09T22:41:52.415Z,12.45
2023-02-09T22:44:19.663Z,13.28
2023-02-09T22:46:47.047Z,12.47
2023-02-09T22:49:20.613Z,12.72
2023-02-09T22:51:49.440Z,12.58
2023-02-09T22:54:19.973Z,11.56
2023-02-09T22:56:47.293Z,11.35
2023-02-09T22:59:15.862Z,12.24
2023-02-09T23:01:44.165Z,12.25
2023-02-09T23:04:11.905Z,12.43
2023-02-09T23:06:39.361Z,11.59
2023-02-09T23:09:08.176Z,11.58
2023-02-09T23:11:36.608Z,12.02
2023-02-09T23:14:09.988Z,12.25
2023-02-09T23:16:39.988Z,12.17
2023-02-09T23:19:13.086Z,11.41
2023-02-09T23:21:46.323Z,11.87
2023-02-09T23:24:16.795Z,11.84
2023-02-09T23:26:45.039Z,11.85
2023-02-09T23:29:15.487Z,11.77
2023-02-09T23:31:44.154Z,12.08
2023-02-09T23:34:21.158Z,11.81
2023-02-09T23:36:48.842Z,11.74
2023-02-09T23:39:21.284Z,12.99
2023-02-09T23:41:48.739Z,11.88
2023-02-09T23:44:16.007Z,11.66
2023-02-09T23:46:43.247Z,11.93
2023-02-09T23:49:11.639Z,12.75
2023-02-09T23:51:38.779Z,12.44
2023-02-09T23:54:07.632Z,13.13
2023-02-09T23:56:38.223Z,12.23
2023-02-09T23:59:08.382Z,12.32
